Startpagina
METAR-TAF:

METAR-TAF

Vliegvelden :

Hongkong, China

Internationale luchthaven Hongkong

breedte: 22-19N, lengte: 113-55E, hoogte: 9 m

Actueel weer

Dit bericht is 22 minuten geleden gemaakt, om 21:30 UTC
Wind 4 kt uit variabele richting
Temperatuur 19°C
Vochtigheid 83%
Druk 1017 hPa
Zicht: 8000 m
Weinig wolken op 3000 ft
Verspreide wolken op 4500 ft

METAR: VHHH 182130Z VRB04KT 8000 FEW030 SCT045 19/16 Q1017 NOSIG

Tijdstip: 05:52 (21:52 UTC)

Verwachting

Dit bericht is 4 uur en het 52 minuten geleden gemaakt, om 17:00 UTC
Verwachting geldig van 18 om 18 UTC tot 19 om 24 UTC
Wind 10 kt uit het oosten
Zicht: 8000 m
Weinig wolken op 2000 ft
Verspreide wolken op 4000 ft
Tijdelijke
van 18 om 18 UTC tot 18 om 24 UTC
Zicht: 4000 m
nevel, lichte regen

TAF: VHHH 181700Z 1818/1924 08010KT 8000 FEW020 SCT040 TX22/1906Z TN18/1823Z TN18/1923Z TEMPO 1818/1824 4000 BR -RA

Waarnemingen en weersverwachtingen van meer dan 4000 vliegvelden (METAR en TAF).

De beschikbare stations zijn de gele en rode punten op de kaart.

Ga met uw muis naar het station om de naam te zien.

Klik dan om waarnemingen en weersverwachtingen te zien.

kaart wijzigen: klik op de groene knoppen met een zwart kruis om in te zoomen, op de groene knop met een streepje om uit te zoomen of op de groene pijlen voor aangrenzende kaarten.


METAR-TAF: